Time;durP1;ratioP1;P1;durP2;ratioP2;P2;SDS_P1;SDS_P2;PMS_P1;PMS_P2;Temp;Humidity;BMP_temperature;BMP_pressure;BME280_temperature;BME280_humidity;BME280_pressure;Samples;Min_cycle;Max_cycle;Signal;HPM_P1;HPM_P2
2023/06/27 00:01:40;;;;;;;0.30;0.20;;;;;;;-145.06;0.00;60892.56;5923269;23;20010;-93
2023/06/27 00:04:19;;;;;;;0.47;0.30;;;;;;;-145.06;0.00;60892.56;5923043;23;20033;-94
2023/06/27 00:06:58;;;;;;;0.40;0.40;;;;;;;-145.06;0.00;60892.56;5922873;23;20237;-94
2023/06/27 00:09:38;;;;;;;0.83;0.20;;;;;;;-145.06;0.00;60892.56;5923171;23;20005;-95
2023/06/27 00:12:18;;;;;;;0.20;0.20;;;;;;;21.08;0.00;60892.56;5923196;23;20249;-94
2023/06/27 00:14:57;;;;;;;0.57;0.30;;;;;;;-145.06;0.00;60892.56;5923336;23;20010;-93
2023/06/27 00:17:37;;;;;;;0.70;0.50;;;;;;;-145.06;0.00;60892.56;5922584;23;20005;-93
2023/06/27 00:20:16;;;;;;;0.40;0.30;;;;;;;-145.06;0.00;60892.56;5922773;23;20001;-94
2023/06/27 00:23:16;;;;;;;0.30;0.20;;;;;;;187.52;0.00;60892.56;5945279;23;20065;-93
2023/06/27 00:25:55;;;;;;;0.28;0.20;;;;;;;18.57;0.00;60892.56;5915545;23;20365;-93
2023/06/27 00:28:34;;;;;;;3.20;0.50;;;;;;;-145.06;0.00;60892.56;5915610;23;20005;-95
2023/06/27 00:31:13;;;;;;;0.20;0.20;;;;;;;-145.06;0.00;60892.56;5914942;23;20341;-94
2023/06/27 00:33:52;;;;;;;0.30;0.20;;;;;;;18.45;0.00;60892.56;5915214;23;20029;-93
2023/06/27 00:36:31;;;;;;;0.67;0.30;;;;;;;-145.06;0.00;60892.56;5915504;23;20321;-94
2023/06/27 00:39:10;;;;;;;0.30;0.30;;;;;;;187.52;0.00;60892.56;5915430;23;20238;-94
2023/06/27 00:41:49;;;;;;;0.30;0.30;;;;;;;-145.06;0.00;60892.56;5915325;23;20010;-94
2023/06/27 00:44:28;;;;;;;0.47;0.20;;;;;;;-145.06;0.00;60892.56;5915461;23;20238;-94
2023/06/27 00:47:07;;;;;;;1.00;0.30;;;;;;;-145.06;0.00;60892.56;5915007;23;20010;-95
2023/06/27 00:49:46;;;;;;;0.22;0.17;;;;;;;-145.06;0.00;60892.56;5915925;23;20010;-94
2023/06/27 00:52:25;;;;;;;0.43;0.20;;;;;;;-145.06;0.00;60892.56;5915397;23;20314;-94
2023/06/27 00:55:05;;;;;;;0.65;0.30;;;;;;;-145.06;0.00;60892.56;5915863;23;20005;-94
2023/06/27 00:57:47;;;;;;;0.60;0.30;;;;;;;-145.06;0.00;60892.56;5915231;23;20006;-93
2023/06/27 01:00:27;;;;;;;1.30;0.30;;;;;;;-145.06;0.00;60892.56;5915240;23;19998;-93
2023/06/27 01:03:06;;;;;;;1.67;0.30;;;;;;;-145.06;0.00;60892.56;5915329;23;20437;-94
2023/06/27 01:05:46;;;;;;;0.20;0.20;;;;;;;-145.06;0.00;60892.56;5915223;23;20006;-95
2023/06/27 01:08:39;;;;;;;0.68;0.45;;;;;;;-145.06;0.00;60892.56;5915376;23;20010;-94
2023/06/27 01:11:26;;;;;;;0.20;0.20;;;;;;;-145.06;0.00;60892.56;5915706;23;20010;-93
2023/06/27 01:14:08;;;;;;;0.45;0.30;;;;;;;-145.06;0.00;60892.56;5915502;23;20432;-94
2023/06/27 01:16:48;;;;;;;0.65;0.30;;;;;;;-145.06;0.00;60892.56;5917811;23;20006;-93
2023/06/27 01:19:31;;;;;;;0.20;0.20;;;;;;;-145.06;0.00;60892.56;5917221;23;20077;-94
2023/06/27 01:22:17;;;;;;;0.28;0.20;;;;;;;-145.06;0.00;60892.56;5916653;23;20456;-95
2023/06/27 01:24:56;;;;;;;0.40;0.30;;;;;;;-145.06;0.00;60892.56;5924904;23;20014;-95
2023/06/27 01:27:39;;;;;;;0.25;0.25;;;;;;;-145.06;0.00;60892.56;5924247;23;20009;-95
2023/06/27 01:30:18;;;;;;;0.40;0.30;;;;;;;-145.06;0.00;60892.56;5924105;23;20013;-93
2023/06/27 01:33:04;;;;;;;0.77;0.40;;;;;;;-145.06;0.00;60892.56;5924463;23;20005;-95
2023/06/27 01:35:54;;;;;;;0.40;0.30;;;;;;;-145.06;0.00;60892.56;5924054;23;20009;-94
2023/06/27 01:38:47;;;;;;;0.22;0.20;;;;;;;-145.06;0.00;60892.56;5924512;23;20309;-93
2023/06/27 01:41:28;;;;;;;0.30;0.20;;;;;;;-145.06;0.00;60892.56;5923981;23;20002;-93
2023/06/27 01:44:08;;;;;;;0.57;0.22;;;;;;;-145.06;0.00;60892.56;5924546;23;20009;-94
2023/06/27 01:46:50;;;;;;;0.45;0.38;;;;;;;-145.06;0.00;60892.56;5924008;23;20010;-94
2023/06/27 01:49:29;;;;;;;0.20;0.15;;;;;;;-145.06;0.00;60892.56;5923976;23;20010;-93
2023/06/27 01:52:13;;;;;;;0.32;0.20;;;;;;;-145.06;0.00;60892.56;5924598;23;20002;-93
2023/06/27 01:54:53;;;;;;;0.75;0.28;;;;;;;-145.06;0.00;60892.56;5924528;23;20005;-94
2023/06/27 01:57:32;;;;;;;0.63;0.30;;;;;;;-145.06;0.00;60892.56;5924196;23;20005;-94
2023/06/27 02:00:11;;;;;;;0.30;0.25;;;;;;;-145.06;0.00;60892.56;5924235;23;19997;-94
2023/06/27 02:02:50;;;;;;;0.65;0.28;;;;;;;-145.06;0.00;60892.56;5955967;23;20005;-93
2023/06/27 02:05:29;;;;;;;0.60;0.30;;;;;;;-145.06;0.00;60892.56;5924216;23;20033;-93
2023/06/27 02:08:08;;;;;;;0.30;0.27;;;;;;;-145.06;0.00;60892.56;5923594;23;20237;-94
2023/06/27 02:10:47;;;;;;;0.40;0.30;;;;;;;-145.06;0.00;60892.56;5923870;23;20246;-94
2023/06/27 02:13:26;;;;;;;1.13;0.40;;;;;;;18.48;0.00;60892.56;5923388;23;20005;-95
2023/06/27 02:16:05;;;;;;;0.60;0.37;;;;;;;-145.06;0.00;60892.56;5923748;23;20264;-94
2023/06/27 02:18:44;;;;;;;0.30;0.20;;;;;;;-145.06;0.00;60892.56;5923945;23;20080;-93
2023/06/27 02:21:23;;;;;;;0.63;0.30;;;;;;;-145.06;0.00;60892.56;5924262;23;20006;-93
2023/06/27 02:24:02;;;;;;;0.30;0.30;;;;;;;-145.06;0.00;60892.56;5924056;23;20537;-94
2023/06/27 02:26:41;;;;;;;0.30;0.25;;;;;;;-145.06;0.00;60892.56;5924220;23;20241;-93
2023/06/27 02:29:20;;;;;;;1.40;0.37;;;;;;;-145.06;0.00;60892.56;5923847;23;20037;-95
2023/06/27 02:31:59;;;;;;;0.53;0.40;;;;;;;-145.06;0.00;60892.56;5925979;23;20561;-93
2023/06/27 02:44:38;;;;;;;0.40;0.30;;;;;;;-145.06;0.00;60892.56;5956115;23;19939;-94
2023/06/27 02:47:19;;;;;;;0.37;0.33;;;;;;;-145.06;0.00;60892.56;5952374;23;20013;-92
2023/06/27 02:49:58;;;;;;;0.50;0.35;;;;;;;-145.06;0.00;60892.56;5974768;23;20005;-94
2023/06/27 02:52:37;;;;;;;0.68;0.35;;;;;;;-145.06;0.00;60892.56;5952643;23;20013;-93
2023/06/27 02:55:16;;;;;;;0.40;0.20;;;;;;;-145.06;0.00;60892.56;5952011;23;20009;-92
2023/06/27 02:57:55;;;;;;;0.45;0.30;;;;;;;-145.06;0.00;60892.56;5952137;23;20037;-92
2023/06/27 03:00:34;;;;;;;0.83;0.20;;;;;;;18.48;0.00;60892.56;5952327;23;20005;-92
2023/06/27 03:03:13;;;;;;;1.30;0.40;;;;;;;-145.06;0.00;60892.56;5952584;23;20009;-94
2023/06/27 03:05:52;;;;;;;0.60;0.30;;;;;;;-145.06;0.00;60892.56;5951920;23;20005;-93
2023/06/27 03:08:30;;;;;;;0.30;0.23;;;;;;;-145.06;0.00;60892.56;5931403;23;20711;-93
2023/06/27 03:11:09;;;;;;;2.70;0.43;;;;;;;-145.06;0.00;60892.56;5952170;23;20253;-93
2023/06/27 03:13:49;;;;;;;0.30;0.20;;;;;;;-145.06;0.00;60892.56;5951782;23;20272;-93
2023/06/27 03:16:27;;;;;;;1.20;0.50;;;;;;;-145.06;0.00;60892.56;5951808;23;20317;-93
2023/06/27 03:19:06;;;;;;;0.50;0.33;;;;;;;-145.06;0.00;60892.56;5951554;23;20415;-93
2023/06/27 03:21:45;;;;;;;0.57;0.30;;;;;;;-145.06;0.00;60892.56;5952498;23;20005;-93
2023/06/27 03:24:24;;;;;;;0.40;0.40;;;;;;;-145.06;0.00;60892.56;5951989;23;20009;-94
2023/06/27 03:27:03;;;;;;;1.17;0.40;;;;;;;-145.06;0.00;60892.56;5974355;23;20005;-94
2023/06/27 03:29:42;;;;;;;1.70;0.40;;;;;;;17.45;0.00;60892.56;5951942;23;20544;-93
2023/06/27 03:32:21;;;;;;;0.57;0.45;;;;;;;-145.06;0.00;60892.56;5951845;23;20009;-94
2023/06/27 03:35:00;;;;;;;0.33;0.30;;;;;;;17.44;0.00;60892.56;5952282;23;20009;-93
2023/06/27 03:37:39;;;;;;;0.63;0.32;;;;;;;21.08;0.00;60892.56;5952033;23;20245;-93
2023/06/27 03:40:18;;;;;;;0.82;0.52;;;;;;;-145.06;0.00;60892.56;5951233;23;20001;-92
2023/06/27 03:42:58;;;;;;;0.68;0.40;;;;;;;-145.06;0.00;60892.56;5961963;23;20021;-92
2023/06/27 03:45:38;;;;;;;0.98;0.40;;;;;;;-145.06;0.00;60892.56;5944045;23;20361;-93
2023/06/27 03:48:17;;;;;;;0.65;0.40;;;;;;;-145.06;0.00;60892.56;5944098;23;20294;-94
2023/06/27 03:50:56;;;;;;;1.40;0.37;;;;;;;-145.06;0.00;60892.56;5943592;23;20006;-93
2023/06/27 03:53:35;;;;;;;0.70;0.47;;;;;;;-145.06;0.00;60892.56;5943796;23;20533;-92
2023/06/27 03:56:15;;;;;;;1.85;0.43;;;;;;;-145.06;0.00;60892.56;5944244;23;20005;-94
2023/06/27 03:58:53;;;;;;;1.70;0.40;;;;;;;-145.06;0.00;60892.56;5944146;23;20010;-94
2023/06/27 04:01:32;;;;;;;1.13;0.40;;;;;;;-145.06;0.00;60892.56;5944338;23;20005;-93
2023/06/27 04:04:12;;;;;;;0.70;0.28;;;;;;;-145.06;0.00;60892.56;5943915;23;20009;-92
2023/06/27 04:06:51;;;;;;;0.30;0.30;;;;;;;-145.06;0.00;60892.56;5943789;23;20005;-93
2023/06/27 04:09:30;;;;;;;2.77;0.37;;;;;;;-145.06;0.00;60892.56;5943464;23;20033;-93
2023/06/27 04:12:09;;;;;;;0.80;0.50;;;;;;;18.48;0.00;60892.56;5944369;23;20010;-93
2023/06/27 04:14:48;;;;;;;0.75;0.20;;;;;;;-145.06;0.00;60892.56;5944155;23;20687;-93
2023/06/27 04:17:27;;;;;;;0.73;0.33;;;;;;;-145.06;0.00;60892.56;5944108;23;20010;-92
2023/06/27 04:20:07;;;;;;;1.20;0.47;;;;;;;-145.06;0.00;60892.56;5944968;23;20005;-93
2023/06/27 04:22:46;;;;;;;0.90;0.30;;;;;;;-145.06;0.00;60892.56;5944107;23;20230;-93
2023/06/27 04:25:29;;;;;;;0.40;0.23;;;;;;;-145.06;0.00;60892.56;5943581;23;20006;-93
2023/06/27 04:28:08;;;;;;;1.58;0.47;;;;;;;-145.06;0.00;60892.56;5944077;23;20229;-93
2023/06/27 04:30:47;;;;;;;0.93;0.43;;;;;;;-145.06;0.00;60892.56;5943681;23;20436;-93
2023/06/27 04:33:30;;;;;;;1.13;0.45;;;;;;;-145.06;0.00;60892.56;5944131;23;20009;-92
2023/06/27 04:36:10;;;;;;;1.23;0.40;;;;;;;-145.06;0.00;60892.56;5943902;23;20032;-93
2023/06/27 04:38:49;;;;;;;0.95;0.40;;;;;;;-145.06;0.00;60892.56;5943478;23;20005;-93
2023/06/27 04:41:29;;;;;;;0.60;0.30;;;;;;;-145.06;0.00;60892.56;5943961;23;20001;-93
2023/06/27 04:44:08;;;;;;;0.73;0.35;;;;;;;-145.06;0.00;60892.56;5945280;23;20237;-91
2023/06/27 04:46:47;;;;;;;1.55;0.45;;;;;;;-145.06;0.00;60892.56;5951459;23;20005;-93
2023/06/27 04:49:26;;;;;;;1.10;0.50;;;;;;;-145.06;0.00;60892.56;5952378;23;20012;-94
2023/06/27 04:52:05;;;;;;;0.90;0.30;;;;;;;-145.06;0.00;60892.56;5953207;23;20004;-92
2023/06/27 04:54:49;;;;;;;;;;;;;;;-145.06;0.00;60892.56;5953889;23;20233;-93
2023/06/27 04:57:28;;;;;;;0.45;0.32;;;;;;;-145.06;0.00;60892.56;5952854;23;19931;-93
2023/06/27 05:00:10;;;;;;;1.50;0.60;;;;;;;-145.06;0.00;60892.56;5953215;23;20064;-94
2023/06/27 05:02:49;;;;;;;1.25;0.40;;;;;;;17.25;0.00;60892.56;5953532;23;20454;-93
2023/06/27 05:05:32;;;;;;;0.73;0.40;;;;;;;-145.06;0.00;60892.56;5953451;23;20013;-93
2023/06/27 05:08:11;;;;;;;0.90;0.45;;;;;;;-145.06;0.00;60892.56;5953931;23;20009;-93
2023/06/27 05:10:50;;;;;;;0.60;0.40;;;;;;;-145.06;0.00;60892.56;5953125;23;20013;-92
2023/06/27 05:13:29;;;;;;;0.82;0.30;;;;;;;-145.06;0.00;60892.56;5952965;23;20005;-92
2023/06/27 05:16:08;;;;;;;0.82;0.40;;;;;;;17.26;0.00;60892.56;5953512;23;20312;-94
2023/06/27 05:18:47;;;;;;;0.83;0.30;;;;;;;-145.06;0.00;60892.56;5953145;23;20238;-93
2023/06/27 05:21:28;;;;;;;0.70;0.30;;;;;;;-145.06;0.00;60892.56;5953374;23;20690;-93
2023/06/27 05:24:07;;;;;;;1.38;0.50;;;;;;;-145.06;0.00;60892.56;5953280;23;20316;-94
2023/06/27 05:26:46;;;;;;;0.43;0.20;;;;;;;17.83;0.00;60892.56;5952879;23;20005;-93
2023/06/27 05:29:26;;;;;;;0.85;0.45;;;;;;;-145.06;0.00;60892.56;5953367;23;20009;-94
2023/06/27 05:32:05;;;;;;;2.15;0.40;;;;;;;-145.06;0.00;60892.56;5952948;23;20439;-93
2023/06/27 05:34:44;;;;;;;1.27;0.50;;;;;;;-145.06;0.00;60892.56;5953310;23;20262;-93
2023/06/27 05:37:23;;;;;;;1.27;0.70;;;;;;;-145.06;0.00;60892.56;5953065;23;20024;-94
2023/06/27 05:40:02;;;;;;;0.95;0.50;;;;;;;-145.06;0.00;60892.56;5952875;23;20005;-92
2023/06/27 05:52:42;;;;;;;1.73;0.60;;;;;;;-145.06;0.00;60892.56;5974909;23;20003;-93
2023/06/27 05:55:21;;;;;;;1.10;0.60;;;;;;;-145.06;0.00;60892.56;5985432;23;20032;-92
2023/06/27 05:57:59;;;;;;;1.43;0.60;;;;;;;-145.06;0.00;60892.56;5953466;23;20004;-91
2023/06/27 06:00:39;;;;;;;1.23;0.80;;;;;;;-145.06;0.00;60892.56;5952622;23;20321;-91
2023/06/27 06:03:18;;;;;;;1.63;0.40;;;;;;;-145.06;0.00;60892.56;5953242;23;20004;-93
2023/06/27 06:05:57;;;;;;;1.00;0.50;;;;;;;-145.06;0.00;60892.56;5952698;23;20068;-93
2023/06/27 06:08:36;;;;;;;1.97;0.67;;;;;;;-145.06;0.00;60892.56;5953253;23;20009;-93
2023/06/27 14:56:42;;;;;;;0.50;0.30;;;;;;;-145.06;0.00;60892.56;5977498;23;20028;-94
2023/06/27 15:34:35;;;;;;;;;;;;;;;;;;;;;
2023/06/27 16:16:47;;;;;;;0.65;0.35;;;;;;;-145.06;0.00;60892.56;5976806;23;20017;-94
2023/06/27 16:24:41;;;;;;;0.50;0.30;;;;;;;-145.06;0.00;60892.56;5976417;23;20106;-91
2023/06/27 16:35:59;;;;;;;;;;;;;;;;;;;;;
2023/06/27 18:45:44;;;;;;;0.60;0.30;;;;;;;-145.06;0.00;60892.56;5977834;23;20017;-92
2023/06/27 18:49:26;;;;;;;0.30;0.30;;;;;;;-145.06;0.00;60892.56;5954206;23;20009;-93
2023/06/27 18:55:39;;;;;;;0.65;0.30;;;;;;;-145.06;0.00;60892.56;5839037;23;20462;-93
2023/06/27 18:58:53;;;;;;;0.93;0.40;;;;;;;26.27;0.00;60892.56;5947426;23;20025;-93
2023/06/27 19:02:01;;;;;;;0.60;0.30;;;;;;;-145.06;0.00;60892.56;5925140;23;20025;-93
2023/06/27 19:05:02;;;;;;;0.30;0.20;;;;;;;-145.06;0.00;60892.56;5925133;23;20009;-92
2023/06/27 19:07:56;;;;;;;0.28;0.10;;;;;;;-145.06;0.00;60892.56;5946220;23;20006;-94
2023/06/27 19:10:42;;;;;;;0.65;0.40;;;;;;;-145.06;0.00;60892.56;5945659;23;20002;-93
2023/06/27 19:13:29;;;;;;;0.57;0.22;;;;;;;23.14;0.00;60892.56;5926331;23;20005;-93
2023/06/27 19:16:32;;;;;;;0.57;0.25;;;;;;;-145.06;0.00;60892.56;5948574;23;20009;-93
2023/06/27 19:24:30;;;;;;;1.27;0.30;;;;;;;23.06;0.00;60892.56;5973806;23;20021;-94
2023/06/27 19:27:26;;;;;;;0.30;0.20;;;;;;;-145.06;0.00;60892.56;5954531;23;20456;-96
2023/06/27 19:30:17;;;;;;;0.57;0.30;;;;;;;-145.06;0.00;60892.56;5953068;23;20005;-93
2023/06/27 19:33:02;;;;;;;0.65;0.30;;;;;;;-145.06;0.00;60892.56;5952884;23;20005;-93
2023/06/27 19:35:53;;;;;;;0.35;0.30;;;;;;;-145.06;0.00;60892.56;5953597;23;20317;-94
2023/06/27 19:38:53;;;;;;;;;;;;;;;;;;;;;
2023/06/27 19:45:42;;;;;;;;;;;;;;;;;;;;;
2023/06/27 19:48:28;;;;;;;0.35;0.25;;;;;;;-145.06;0.00;60892.56;5934338;23;20005;-95
2023/06/27 19:51:16;;;;;;;0.50;0.35;;;;;;;-145.06;0.00;60892.56;5953367;23;20424;-95
2023/06/27 21:13:43;;;;;;;0.57;0.30;;;;;;;-145.06;0.00;60892.56;5976635;23;20393;-95
